KMEI

Key Field Airport

Meridian, Mississippi, USA
METAR KMEI 191158Z 00000KT 10SM CLR 22/19 A2999 RMK AO2 SLP151 T02170194 10233 20217 53015
Observed Flight Rules
Sep-19 @ 11:58 UTC (58 minutes ago) Visual Flight Rules
Visibility Clouds
10 miles
  • Clear skies
Temperatures Readings
Current 22°C / 72°F
Dewpoint 19°C / 66°F
Humidity 83%
Altimeter 29.99" Hg
Pressure 1015.1 hPa
Elevation 89
METAR KMEI 191158Z 00000KT 10SM CLR 22/19 A2999 RMK AO2 SLP151 T02170194 10233 20217 53015
Observed Flight Rules
Sep-19 @ 11:58 UTC
(58 minutes ago)
VFR
Clouds
  • Clear skies
Temperature Dewpoint
22°C / 72°F 19°C / 66°F
Humidity Altimeter Pressure
83% 29.99" Hg 1015.1 hPa